Maupin, OR

3:40 AM PST on February 13, 2016 (GMT -0800)
Sportsmans Park | | Change Station
CLOSE
Current Station
Personal Weather Station
Location: Tygh Valley, OR
Elevation: 2293 ft
Nearby Weather Stations

Elev 2293 ft 45.22 °N, 121.40 °W | Updated 6 minutes ago

Mostly Cloudy
Mostly Cloudy
34.7 °F
Feels Like 35 °F
N
1.7
Wind Variable Wind from SSE

Today
High -- | Low -- °F
--% Chance of Precip.
Yesterday
High -- | Low -- °F
Precip. -- in
Pressure 30.29 in
Visibility 10.0 miles
Clouds Mostly Cloudy 5000 ft
Windchill 35 °F
Dew Point 32 °F
Humidity 91%
Rainfall 0.00 in
Snow Depth Not available.
7:10 AM 5:30 PM
Waxing Crescent, 30% visible
METAR KRDM 131056Z AUTO 00000KT 10SM BKN050 01/M01 A3027 RMK AO2 SLP256 T00061011
Pressure 30.29 in
Visibility 10.0 miles
Clouds Mostly Cloudy 5000 ft
Windchill 35 °F
Dew Point 32 °F
Humidity 91%
Rainfall 0.00 in
Snow Depth Not available.
7:10 AM 5:30 PM
Waxing Crescent, 30% visible
METAR KRDM 131056Z AUTO 00000KT 10SM BKN050 01/M01 A3027 RMK AO2 SLP256 T00061011

10-Day Weather Forecast

Almanac

Astronomy

Feb. 13, 2016 Rise Set
Actual Time
Civil Twilight
Nautical Twilight
Astronomical Twilight
Moon
Length of Visible Light
Length of Day
Tomorrow will be .
, % of the Moon is Illuminated

Today's Extremes

State Highs State Lows

Community

WunderPhotos

Upload Photos

1,892,541 photos uploaded!

WunderBlog® & News

Nearby

Air Quality

  Air Quality AQ Index Pollutant
Not available.

Snow Depth

Station Depth Elevation

Earthquake Activity

City Distance Mag. Time & Date
Minimum magnitude displayed is 2.5.

Coastal Water Temperatures

Place Temperature

Stations

Nearby Weather Stations

Station Location Temp. Windchill Dew Point Humidity Wind Precip. Elev Updated Type
                   

Watches & Warnings

There are currently no watches in effect.